MST,Max TemperatureF,Mean TemperatureF,Min TemperatureF,Max Dew PointF,MeanDew PointF,Min DewpointF,Max Humidity, Mean Humidity, Min Humidity, Max Sea Level PressureIn, Mean Sea Level PressureIn, Min Sea Level PressureIn, Max VisibilityMiles, Mean VisibilityMiles, Min VisibilityMiles, Max Wind SpeedMPH, Mean Wind SpeedMPH, Max Gust SpeedMPH,PrecipitationIn, CloudCover, Events, WindDirDegrees
2011-11-1,47,34,20,34,28,17,100,73,45,30.37,30.13,29.95,10,10,10,18,10,23,0.00,1,,300
2011-11-2,46,31,16,21,16,13,84,56,28,30.47,30.38,30.20,10,10,10,20,11,28,0.00,0,,256
2011-11-3,60,41,21,18,11,1,68,39,9,30.20,29.99,29.76,10,10,10,24,14,31,0.00,0,,179
2011-11-4,57,41,24,25,21,16,68,46,24,29.73,29.66,29.53,10,10,10,14,9,16,0.00,0,,166
2011-11-5,44,36,27,32,28,23,92,77,62,29.52,29.42,29.36,10,10,6,25,10,33,0.00,3,,360
2011-11-6,33,29,25,28,23,21,92,79,66,29.98,29.63,29.40,10,10,7,37,25,46,T,7,Snow,280
2011-11-7,45,31,17,24,16,10,96,61,25,30.20,30.12,29.96,10,10,10,18,9,24,0.00,1,,250
2011-11-8,47,30,13,20,16,8,84,58,31,30.27,30.16,30.10,10,10,10,23,10,29,0.00,0,,259
2011-11-9,41,27,13,20,14,9,91,62,32,30.43,30.38,30.31,10,10,10,28,12,31,0.00,0,,296
2011-11-10,54,32,9,21,15,6,83,55,26,30.31,30.00,29.66,10,10,10,20,10,24,0.00,0,,220
2011-11-11,59,46,32,20,16,12,56,36,15,29.68,29.56,29.38,10,10,10,22,12,25,0.00,0,,247
2011-11-12,54,41,28,27,19,12,92,58,24,29.35,29.30,29.27,10,10,10,22,9,25,0.00,2,,273
2011-11-13,50,39,28,29,25,18,92,61,29,29.38,29.30,29.23,10,10,10,31,15,39,0.00,3,,256
2011-11-14,46,36,25,29,25,20,92,66,40,29.53,29.45,29.36,10,8,2,26,13,37,0.01,4,Snow,256
2011-11-15,31,23,14,28,19,10,92,71,50,30.06,29.76,29.46,10,10,7,31,19,39,T,5,Snow,281
2011-11-16,31,20,8,12,9,3,84,63,42,30.25,30.20,30.07,10,10,10,26,11,32,0.00,1,,271
2011-11-17,44,25,5,21,7,0,88,56,24,30.15,29.81,29.56,10,10,10,23,11,29,0.00,5,,183
2011-11-18,41,24,7,22,13,3,88,63,37,30.01,29.76,29.58,10,10,10,20,13,23,0.00,5,,318
2011-11-19,10,3,-5,5,2,-6,88,81,73,30.27,30.09,29.88,10,5,1,16,9,18,T,7,Snow,62
2011-11-20,25,11,-4,14,5,-6,91,77,62,30.24,30.13,30.02,10,9,2,22,11,26,T,2,Snow,184
2011-11-21,40,22,3,26,14,1,88,68,47,30.15,30.07,29.98,10,10,10,17,9,21,0.00,0,,173
2011-11-22,51,36,20,29,24,18,92,66,39,30.00,29.94,29.88,10,10,10,20,11,23,0.00,0,,233
2011-11-23,61,49,36,30,27,25,70,51,31,29.93,29.83,29.68,10,10,10,20,12,24,0.00,0,,208
2011-11-24,58,47,35,28,26,25,70,49,28,29.72,29.68,29.64,10,10,10,14,7,21,0.00,0,,254
2011-11-25,46,37,27,32,28,21,100,75,50,30.04,29.73,29.62,10,6,0,25,9,31,0.00,3,Fog,38
2011-11-26,37,26,14,25,11,2,75,49,23,30.50,30.36,30.09,10,10,10,31,16,40,0.00,1,,297
2011-11-27,55,38,20,24,18,8,57,41,24,30.35,30.08,29.83,10,10,10,21,10,25,0.00,0,,219
2011-11-28,49,33,17,30,22,14,80,57,34,30.41,30.16,29.81,10,10,10,24,11,31,0.00,0,,300
2011-11-29,49,34,18,27,23,14,77,60,42,30.36,30.14,29.95,10,10,10,23,11,28,0.00,2,,229
2011-11-30,39,32,24,30,27,21,92,78,64,30.47,30.05,29.85,10,4,0,25,11,29,0.05,8,Fog-Snow,43